Time;durP1;ratioP1;P1;durP2;ratioP2;P2;SDS_P1;SDS_P2;PMS_P1;PMS_P2;Temp;Humidity;BMP_temperature;BMP_pressure;BME280_temperature;BME280_humidity;BME280_pressure;Samples;Min_cycle;Max_cycle;Signal;HPM_P1;HPM_P2
2021/09/25 00:01:53;;;;;;;13.40;7.53;;;;;;;;;;4993808;28;20127;-87
2021/09/25 00:04:38;;;;;;;11.23;8.23;;;;;;;;;;5012814;28;20022;-88
2021/09/25 00:07:23;;;;;;;13.02;8.93;;;;;;;;;;5009150;28;20033;-86
2021/09/25 00:10:09;;;;;;;11.60;9.00;;;;;;;;;;5016385;28;20076;-86
2021/09/25 00:12:54;;;;;;;10.95;8.07;;;;;;;;;;5006757;28;20073;-87
2021/09/25 00:15:39;;;;;;;12.02;8.52;;;;;;;;;;5007054;28;20041;-86
2021/09/25 00:18:25;;;;;;;10.60;7.82;;;;;;;;;;4989845;28;20030;-87
2021/09/25 00:21:10;;;;;;;11.55;7.93;;;;;;;;;;5005814;28;20033;-87
2021/09/25 00:23:55;;;;;;;10.82;7.95;;;;;;;;;;5003380;28;20111;-86
2021/09/25 00:26:43;;;;;;;13.20;7.97;;;;;;;;;;5003319;28;20376;-87
2021/09/25 00:29:29;;;;;;;10.75;7.60;;;;;;;;;;5017257;28;20021;-87
2021/09/25 00:32:14;;;;;;;12.80;7.60;;;;;;;;;;5013593;28;20013;-86
2021/09/25 00:34:59;;;;;;;11.88;7.63;;;;;;;;;;5015961;28;20025;-88
2021/09/25 00:37:45;;;;;;;11.68;8.50;;;;;;;;;;5014566;28;20038;-88
2021/09/25 00:40:30;;;;;;;12.07;8.15;;;;;;;;;;5017098;28;20025;-87
2021/09/25 00:43:15;;;;;;;9.43;7.65;;;;;;;;;;5016199;28;20542;-87
2021/09/25 00:46:00;;;;;;;11.45;7.13;;;;;;;;;;5016324;28;20045;-87
2021/09/25 00:48:46;;;;;;;12.25;8.32;;;;;;;;;;5018051;28;20053;-86
2021/09/25 00:51:32;;;;;;;11.73;8.25;;;;;;;;;;5011082;28;20029;-85
2021/09/25 00:54:17;;;;;;;12.60;8.50;;;;;;;;;;5010706;28;20103;-90
2021/09/25 00:57:03;;;;;;;12.45;8.00;;;;;;;;;;5004851;28;20025;-87
2021/09/25 00:59:48;;;;;;;13.80;8.05;;;;;;;;;;4998391;28;20050;-86
2021/09/25 01:02:36;;;;;;;13.27;7.88;;;;;;;;;;5012875;28;20025;-87
2021/09/25 01:05:23;;;;;;;13.00;9.05;;;;;;;;;;4997039;28;20014;-87
2021/09/25 01:08:08;;;;;;;12.35;8.38;;;;;;;;;;5021485;28;20025;-88
2021/09/25 01:10:54;;;;;;;11.98;7.40;;;;;;;;;;5010423;28;20018;-86
2021/09/25 01:13:39;;;;;;;12.70;8.15;;;;;;;;;;5018184;28;20030;-87
2021/09/25 01:16:25;;;;;;;11.75;7.40;;;;;;;;;;4996794;28;20049;-89
2021/09/25 01:19:10;;;;;;;11.95;7.78;;;;;;;;;;4995781;28;20039;-88
2021/09/25 01:21:55;;;;;;;10.68;7.15;;;;;;;;;;5003817;28;20459;-89
2021/09/25 01:24:41;;;;;;;11.38;7.88;;;;;;;;;;5010195;28;20433;-87
2021/09/25 01:27:26;;;;;;;11.70;6.38;;;;;;;;;;4989924;28;20029;-86
2021/09/25 01:30:13;;;;;;;12.07;7.03;;;;;;;;;;5008681;28;20251;-87
2021/09/25 01:33:00;;;;;;;10.32;6.70;;;;;;;;;;5010807;28;20562;-88
2021/09/25 01:35:46;;;;;;;11.73;6.13;;;;;;;;;;5016158;28;20025;-88
2021/09/25 01:38:31;;;;;;;9.70;6.50;;;;;;;;;;5004673;28;20061;-88
2021/09/25 01:41:17;;;;;;;9.75;7.05;;;;;;;;;;5011738;28;20116;-89
2021/09/25 01:44:02;;;;;;;9.32;6.90;;;;;;;;;;5015475;28;20479;-90
2021/09/25 01:46:48;;;;;;;9.02;6.43;;;;;;;;;;5003007;28;20030;-87
2021/09/25 01:49:33;;;;;;;10.32;6.95;;;;;;;;;;5008165;28;20406;-88
2021/09/25 01:52:18;;;;;;;9.45;6.70;;;;;;;;;;4997205;28;20432;-89
2021/09/25 01:55:04;;;;;;;9.40;6.75;;;;;;;;;;5009818;28;20064;-90
2021/09/25 01:57:49;;;;;;;10.43;7.60;;;;;;;;;;5006752;28;20507;-90
2021/09/25 02:00:35;;;;;;;10.23;7.05;;;;;;;;;;5019865;28;20033;-90
2021/09/25 02:03:20;;;;;;;11.88;6.32;;;;;;;;;;5014011;28;20444;-90
2021/09/25 02:06:06;;;;;;;9.95;7.18;;;;;;;;;;4991703;28;20034;-91
2021/09/25 02:08:51;;;;;;;9.70;7.35;;;;;;;;;;5007488;28;20092;-90
2021/09/25 02:11:37;;;;;;;10.20;7.18;;;;;;;;;;5011218;28;20017;-92
2021/09/25 02:14:22;;;;;;;10.20;6.70;;;;;;;;;;5013619;28;20021;-89
2021/09/25 02:17:07;;;;;;;9.43;6.93;;;;;;;;;;5012965;28;20109;-88
2021/09/25 02:19:52;;;;;;;9.85;8.18;;;;;;;;;;4996002;28;20013;-88
2021/09/25 02:22:38;;;;;;;11.55;8.38;;;;;;;;;;5005036;28;20154;-87
2021/09/25 02:25:23;;;;;;;11.48;8.23;;;;;;;;;;5010030;28;20022;-88
2021/09/25 02:28:09;;;;;;;11.25;7.70;;;;;;;;;;5000279;28;20270;-87
2021/09/25 02:30:54;;;;;;;9.25;6.72;;;;;;;;;;5011229;28;20087;-87
2021/09/25 02:33:39;;;;;;;16.42;8.27;;;;;;;;;;5013042;28;20016;-88
2021/09/25 02:36:25;;;;;;;8.02;6.15;;;;;;;;;;5017438;28;20026;-88
2021/09/25 02:39:10;;;;;;;10.13;7.28;;;;;;;;;;5021860;28;20241;-88
2021/09/25 02:41:55;;;;;;;11.18;7.70;;;;;;;;;;5001920;28;20032;-88
2021/09/25 02:44:41;;;;;;;9.45;6.70;;;;;;;;;;5013336;28;20022;-89
2021/09/25 02:47:26;;;;;;;8.77;6.85;;;;;;;;;;5007034;28;20548;-89
2021/09/25 02:50:13;;;;;;;11.20;7.18;;;;;;;;;;5003931;28;20029;-88
2021/09/25 02:52:58;;;;;;;9.25;6.82;;;;;;;;;;5013524;28;20451;-87
2021/09/25 02:55:43;;;;;;;9.98;6.97;;;;;;;;;;5000837;28;20014;-87
2021/09/25 02:58:28;;;;;;;10.15;6.68;;;;;;;;;;4995038;28;20072;-87
2021/09/25 03:01:14;;;;;;;9.32;6.28;;;;;;;;;;4995343;28;20550;-93
2021/09/25 03:03:59;;;;;;;9.75;6.18;;;;;;;;;;5000285;28;20022;-85
2021/09/25 03:06:44;;;;;;;7.88;6.07;;;;;;;;;;5013929;28;20041;-87
2021/09/25 03:09:29;;;;;;;9.68;6.28;;;;;;;;;;5012876;28;20077;-87
2021/09/25 03:12:15;;;;;;;9.77;6.93;;;;;;;;;;4996978;28;20029;-86
2021/09/25 03:15:01;;;;;;;10.73;6.75;;;;;;;;;;4996318;28;20526;-86
2021/09/25 03:17:46;;;;;;;9.40;6.88;;;;;;;;;;5007235;28;20152;-87
2021/09/25 03:20:32;;;;;;;8.70;6.32;;;;;;;;;;5013114;28;20025;-86
2021/09/25 03:23:17;;;;;;;9.25;6.05;;;;;;;;;;5012693;28;20476;-87
2021/09/25 03:26:02;;;;;;;12.00;6.60;;;;;;;;;;5011626;28;20033;-88
2021/09/25 03:28:47;;;;;;;10.80;6.85;;;;;;;;;;5008702;28;20419;-88
2021/09/25 03:31:33;;;;;;;10.75;6.10;;;;;;;;;;5013397;28;20018;-87
2021/09/25 03:34:18;;;;;;;9.00;7.15;;;;;;;;;;5004070;28;20117;-86
2021/09/25 03:37:03;;;;;;;11.00;7.07;;;;;;;;;;5012991;28;20451;-86
2021/09/25 03:39:49;;;;;;;10.07;6.55;;;;;;;;;;4995667;28;20082;-85
2021/09/25 03:42:34;;;;;;;10.43;7.07;;;;;;;;;;4997339;28;20029;-87
2021/09/25 03:45:19;;;;;;;10.73;6.57;;;;;;;;;;4993865;28;20028;-85
2021/09/25 03:48:05;;;;;;;12.40;6.95;;;;;;;;;;4996261;28;20025;-86
2021/09/25 03:50:53;;;;;;;10.57;7.22;;;;;;;;;;4994848;28;20037;-87
2021/09/25 03:53:38;;;;;;;9.73;6.18;;;;;;;;;;5000107;28;20067;-86
2021/09/25 03:56:23;;;;;;;10.48;6.90;;;;;;;;;;5010980;28;20017;-86
2021/09/25 03:59:09;;;;;;;8.57;6.57;;;;;;;;;;5006434;28;20041;-88
2021/09/25 04:01:54;;;;;;;10.32;6.82;;;;;;;;;;5013636;28;20044;-88
2021/09/25 04:04:39;;;;;;;9.60;7.10;;;;;;;;;;5026763;28;20017;-89
2021/09/25 04:07:24;;;;;;;9.85;6.32;;;;;;;;;;5028360;28;20029;-87
2021/09/25 04:10:10;;;;;;;10.00;6.65;;;;;;;;;;5013701;28;20083;-86
2021/09/25 04:12:55;;;;;;;8.60;5.85;;;;;;;;;;5014259;28;20419;-87
2021/09/25 04:15:40;;;;;;;11.40;6.85;;;;;;;;;;5021668;28;20029;-89
2021/09/25 04:18:25;;;;;;;12.60;6.30;;;;;;;;;;5025930;28;20030;-87
2021/09/25 04:21:14;;;;;;;11.27;6.38;;;;;;;;;;5001451;28;20017;-87
2021/09/25 04:23:59;;;;;;;11.18;6.15;;;;;;;;;;4998597;28;20117;-89
2021/09/25 04:26:44;;;;;;;12.15;6.45;;;;;;;;;;5012176;28;20029;-89
2021/09/25 04:29:30;;;;;;;10.40;6.95;;;;;;;;;;5006641;28;20037;-87
2021/09/25 04:32:15;;;;;;;9.10;6.28;;;;;;;;;;4980714;28;20025;-88
2021/09/25 04:35:00;;;;;;;8.63;6.13;;;;;;;;;;5008374;28;20114;-87
2021/09/25 04:37:45;;;;;;;9.05;6.30;;;;;;;;;;5000305;28;20026;-89
2021/09/25 04:40:31;;;;;;;11.93;7.10;;;;;;;;;;5008970;28;20033;-86
2021/09/25 04:43:16;;;;;;;9.82;6.22;;;;;;;;;;5009906;28;20034;-87
2021/09/25 04:46:01;;;;;;;8.80;6.13;;;;;;;;;;5005623;28;20157;-88
2021/09/25 04:48:48;;;;;;;9.65;6.20;;;;;;;;;;5004377;28;20029;-88
2021/09/25 04:51:33;;;;;;;10.98;6.35;;;;;;;;;;4999390;28;20455;-87
2021/09/25 04:54:19;;;;;;;11.50;6.10;;;;;;;;;;5013300;28;20068;-88
2021/09/25 04:57:04;;;;;;;10.98;6.40;;;;;;;;;;5013231;28;20024;-88
2021/09/25 04:59:49;;;;;;;21.63;7.40;;;;;;;;;;5011717;28;20107;-88
2021/09/25 05:02:35;;;;;;;11.10;6.80;;;;;;;;;;5005702;28;20025;-88
2021/09/25 05:05:20;;;;;;;10.27;6.63;;;;;;;;;;5013150;28;20030;-87
2021/09/25 05:08:05;;;;;;;10.60;6.82;;;;;;;;;;4999769;28;20416;-88
2021/09/25 05:10:50;;;;;;;9.77;6.60;;;;;;;;;;5011445;28;20380;-87
2021/09/25 05:13:36;;;;;;;11.30;6.80;;;;;;;;;;5012918;28;20021;-88
2021/09/25 05:16:22;;;;;;;10.23;6.60;;;;;;;;;;4993582;28;20049;-88
2021/09/25 05:19:09;;;;;;;12.05;6.60;;;;;;;;;;5012576;28;20052;-90
2021/09/25 05:21:55;;;;;;;10.13;6.20;;;;;;;;;;4996495;28;20120;-89
2021/09/25 05:24:40;;;;;;;9.18;6.80;;;;;;;;;;5013948;28;20045;-87
2021/09/25 05:27:26;;;;;;;10.60;6.45;;;;;;;;;;5008702;28;20032;-89
2021/09/25 05:30:12;;;;;;;10.05;6.47;;;;;;;;;;5010867;28;20048;-90
2021/09/25 05:32:57;;;;;;;9.40;6.63;;;;;;;;;;5015556;28;20021;-86
2021/09/25 05:35:42;;;;;;;10.23;6.90;;;;;;;;;;5029621;28;20320;-86
2021/09/25 05:38:28;;;;;;;11.77;6.68;;;;;;;;;;5001660;28;20252;-81
2021/09/25 05:41:13;;;;;;;11.40;6.47;;;;;;;;;;5005399;28;20311;-89
2021/09/25 05:43:58;;;;;;;10.65;6.75;;;;;;;;;;5005812;28;20025;-91
2021/09/25 05:46:44;;;;;;;9.85;6.30;;;;;;;;;;5013098;28;20057;-88
2021/09/25 05:49:31;;;;;;;12.05;7.10;;;;;;;;;;5005369;28;20021;-88
2021/09/25 05:52:17;;;;;;;11.80;6.68;;;;;;;;;;5010472;28;20037;-86
2021/09/25 05:55:03;;;;;;;12.32;7.32;;;;;;;;;;5019867;28;20025;-90
2021/09/25 05:57:51;;;;;;;13.85;7.45;;;;;;;;;;5025940;28;20105;-90
2021/09/25 06:00:36;;;;;;;10.45;6.43;;;;;;;;;;5011551;28;20018;-86
2021/09/25 06:03:21;;;;;;;9.80;6.47;;;;;;;;;;5009995;28;20428;-86
2021/09/25 06:06:16;;;;;;;12.23;6.85;;;;;;;;;;5004988;28;20083;-93
2021/09/25 06:09:01;;;;;;;11.50;6.78;;;;;;;;;;5031974;28;20087;-87
2021/09/25 06:11:47;;;;;;;10.65;6.18;;;;;;;;;;5014375;28;20508;-88
2021/09/25 06:14:33;;;;;;;11.25;7.00;;;;;;;;;;5006977;28;20071;-88
2021/09/25 06:17:18;;;;;;;13.02;7.60;;;;;;;;;;5021849;28;20537;-86
2021/09/25 06:20:04;;;;;;;9.27;6.65;;;;;;;;;;4991277;28;20029;-83
2021/09/25 06:23:00;;;;;;;10.32;7.18;;;;;;;;;;5008353;28;20040;-94
2021/09/25 06:25:49;;;;;;;19.50;13.60;;;;;;;;;;5017125;28;20144;-94
2021/09/25 06:28:37;;;;;;;66.10;48.78;;;;;;;;;;5024752;28;20018;-91
2021/09/25 06:31:22;;;;;;;12.48;8.45;;;;;;;;;;5005873;28;20028;-84
2021/09/25 06:34:07;;;;;;;10.57;7.80;;;;;;;;;;5014579;28;20037;-84
2021/09/25 06:36:53;;;;;;;10.00;6.15;;;;;;;;;;5020328;28;20026;-89
2021/09/25 06:39:38;;;;;;;12.45;6.43;;;;;;;;;;5010265;28;20033;-85
2021/09/25 06:42:23;;;;;;;10.18;6.25;;;;;;;;;;5006157;28;20033;-85
2021/09/25 06:45:09;;;;;;;10.90;7.50;;;;;;;;;;5003069;28;20430;-91
2021/09/25 06:47:54;;;;;;;12.38;6.57;;;;;;;;;;5017766;28;20032;-86
2021/09/25 06:50:39;;;;;;;11.32;7.55;;;;;;;;;;4990987;28;20100;-89
2021/09/25 06:53:25;;;;;;;12.75;7.22;;;;;;;;;;5004238;28;20026;-86
2021/09/25 06:56:10;;;;;;;12.25;7.43;;;;;;;;;;5009975;28;20025;-86
2021/09/25 06:58:55;;;;;;;39.40;31.55;;;;;;;;;;5017393;28;20046;-90
2021/09/25 07:01:40;;;;;;;11.70;7.93;;;;;;;;;;5017149;28;20025;-88
2021/09/25 07:04:26;;;;;;;11.25;7.55;;;;;;;;;;5015479;28;20068;-88
2021/09/25 07:07:11;;;;;;;12.55;7.10;;;;;;;;;;5018572;28;20337;-87
2021/09/25 07:09:56;;;;;;;29.85;20.15;;;;;;;;;;5012358;28;20029;-87
2021/09/25 07:12:42;;;;;;;13.05;8.20;;;;;;;;;;5007455;28;20027;-88
2021/09/25 07:15:27;;;;;;;14.25;9.95;;;;;;;;;;4992225;28;20727;-87
2021/09/25 07:18:12;;;;;;;13.38;10.25;;;;;;;;;;5022854;28;20609;-85
2021/09/25 07:20:58;;;;;;;10.50;7.35;;;;;;;;;;5012898;28;20036;-83
2021/09/25 07:23:43;;;;;;;9.50;7.13;;;;;;;;;;5020326;28;20105;-85
2021/09/25 07:26:28;;;;;;;12.23;7.05;;;;;;;;;;5003293;28;20030;-89
2021/09/25 07:29:14;;;;;;;13.70;6.85;;;;;;;;;;5011412;28;20041;-86
2021/09/25 07:31:59;;;;;;;52.58;37.08;;;;;;;;;;5011786;28;20038;-85
2021/09/25 07:34:44;;;;;;;11.55;8.00;;;;;;;;;;5013443;28;20032;-87
2021/09/25 07:37:30;;;;;;;11.63;6.68;;;;;;;;;;5028159;28;20155;-86
2021/09/25 07:40:15;;;;;;;9.18;6.07;;;;;;;;;;4999443;28;20046;-87
2021/09/25 07:43:04;;;;;;;8.65;6.25;;;;;;;;;;5020925;28;20528;-85
2021/09/25 07:45:49;;;;;;;8.10;5.45;;;;;;;;;;5016750;28;20040;-84
2021/09/25 07:48:35;;;;;;;6.78;5.15;;;;;;;;;;5007166;28;20104;-84
2021/09/25 07:51:20;;;;;;;9.07;6.53;;;;;;;;;;5010387;28;20376;-85
2021/09/25 07:54:06;;;;;;;11.63;5.88;;;;;;;;;;5011184;28;20029;-88
2021/09/25 07:56:51;;;;;;;8.70;5.22;;;;;;;;;;5002421;28;20021;-84
2021/09/25 07:59:37;;;;;;;8.55;6.20;;;;;;;;;;5016115;28;20091;-88
2021/09/25 08:02:22;;;;;;;9.77;6.05;;;;;;;;;;5014089;28;20021;-87
2021/09/25 08:05:08;;;;;;;8.20;6.13;;;;;;;;;;5007175;28;20024;-83
2021/09/25 08:07:53;;;;;;;13.75;7.30;;;;;;;;;;5011062;28;20559;-90
2021/09/25 08:10:38;;;;;;;6.03;4.63;;;;;;;;;;5008523;28;20026;-85
2021/09/25 08:13:24;;;;;;;7.45;4.85;;;;;;;;;;5007060;28;20022;-92
2021/09/25 08:16:09;;;;;;;49.40;37.33;;;;;;;;;;4999067;28;20041;-85
2021/09/25 08:18:56;;;;;;;21.73;17.10;;;;;;;;;;5018451;28;20483;-83
2021/09/25 08:21:42;;;;;;;54.22;33.90;;;;;;;;;;5011925;28;20030;-82
2021/09/25 08:24:27;;;;;;;38.35;30.73;;;;;;;;;;5020899;28;20077;-85
2021/09/25 08:27:12;;;;;;;13.07;5.97;;;;;;;;;;5017186;28;20040;-89
2021/09/25 08:29:57;;;;;;;6.80;5.03;;;;;;;;;;5016987;28;20487;-85
2021/09/25 08:32:43;;;;;;;6.53;4.63;;;;;;;;;;5000968;28;20026;-87
2021/09/25 08:35:28;;;;;;;7.53;4.85;;;;;;;;;;5014749;28;20108;-91
2021/09/25 08:38:14;;;;;;;7.28;5.13;;;;;;;;;;5012921;28;20025;-89
2021/09/25 08:40:59;;;;;;;9.80;4.85;;;;;;;;;;5020042;28;20029;-92
2021/09/25 08:43:45;;;;;;;5.93;4.20;;;;;;;;;;5031929;28;20487;-89
2021/09/25 08:46:32;;;;;;;7.05;4.50;;;;;;;;;;5011892;28;20495;-89
2021/09/25 08:49:17;;;;;;;7.50;4.10;;;;;;;;;;5015555;28;20025;-87
2021/09/25 08:52:02;;;;;;;7.32;5.00;;;;;;;;;;5011520;28;20028;-90
2021/09/25 08:54:48;;;;;;;7.47;5.43;;;;;;;;;;4997737;28;20032;-86
2021/09/25 08:57:33;;;;;;;13.85;11.52;;;;;;;;;;5003419;28;20032;-88
2021/09/25 09:00:36;;;;;;;7.40;4.65;;;;;;;;;;5010929;28;20033;-86
2021/09/25 09:03:21;;;;;;;5.95;4.03;;;;;;;;;;5014996;28;20021;-87
2021/09/25 09:06:45;;;;;;;6.43;4.20;;;;;;;;;;5010813;28;20026;-83
2021/09/25 09:09:40;;;;;;;6.75;4.45;;;;;;;;;;4973296;28;20030;-85
2021/09/25 09:12:26;;;;;;;9.65;6.43;;;;;;;;;;4969942;28;20117;-83
2021/09/25 09:15:11;;;;;;;6.50;3.92;;;;;;;;;;5006915;28;20515;-84
2021/09/25 09:17:57;;;;;;;8.32;4.93;;;;;;;;;;5013782;28;20036;-88
2021/09/25 09:21:01;;;;;;;8.70;4.50;;;;;;;;;;5016049;28;20021;-89
2021/09/25 09:23:51;;;;;;;17.42;15.57;;;;;;;;;;5011912;28;20479;-89
2021/09/25 09:26:41;;;;;;;56.33;45.85;;;;;;;;;;5011077;28;20041;-84
2021/09/25 09:29:31;;;;;;;48.47;37.10;;;;;;;;;;5009829;28;20030;-82
2021/09/25 09:32:17;;;;;;;11.18;8.32;;;;;;;;;;5016654;28;20072;-86
2021/09/25 09:35:10;;;;;;;7.03;4.40;;;;;;;;;;5010742;28;20057;-88
2021/09/25 09:37:56;;;;;;;7.32;4.10;;;;;;;;;;5003948;28;20040;-88
2021/09/25 09:40:41;;;;;;;7.88;5.15;;;;;;;;;;5014626;28;20492;-87
2021/09/25 09:43:26;;;;;;;9.27;4.35;;;;;;;;;;5017394;28;20416;-87
2021/09/25 09:46:12;;;;;;;5.47;4.50;;;;;;;;;;5011455;28;20034;-85
2021/09/25 09:48:57;;;;;;;6.68;3.80;;;;;;;;;;5017358;28;20025;-85
2021/09/25 09:51:55;;;;;;;5.97;4.10;;;;;;;;;;5015010;28;20507;-84
2021/09/25 09:54:42;;;;;;;7.57;4.15;;;;;;;;;;5008958;28;20033;-86
2021/09/25 09:57:28;;;;;;;8.15;4.22;;;;;;;;;;5019719;28;20017;-82
2021/09/25 10:00:14;;;;;;;25.77;22.90;;;;;;;;;;5016333;28;20132;-84
2021/09/25 10:02:59;;;;;;;9.40;6.22;;;;;;;;;;5020527;28;20032;-84
2021/09/25 10:05:45;;;;;;;7.07;4.32;;;;;;;;;;5001234;28;20105;-86
2021/09/25 10:08:40;;;;;;;7.97;4.28;;;;;;;;;;5003131;28;20049;-85
2021/09/25 10:11:25;;;;;;;6.65;3.75;;;;;;;;;;5010636;28;20514;-88
2021/09/25 10:14:13;;;;;;;6.65;4.13;;;;;;;;;;5005745;28;20021;-82
2021/09/25 10:17:00;;;;;;;6.93;4.80;;;;;;;;;;5007412;28;20376;-81
2021/09/25 10:19:46;;;;;;;8.32;4.05;;;;;;;;;;5006626;28;20041;-83
2021/09/25 10:22:32;;;;;;;6.40;4.50;;;;;;;;;;5005341;28;20022;-82
2021/09/25 10:25:18;;;;;;;8.82;5.10;;;;;;;;;;5007271;28;20112;-80
2021/09/25 10:28:21;;;;;;;6.90;4.88;;;;;;;;;;5009029;28;20022;-81
2021/09/25 10:31:16;;;;;;;10.15;5.38;;;;;;;;;;5004775;28;20112;-81
2021/09/25 10:34:05;;;;;;;5.10;4.22;;;;;;;;;;5009370;28;20708;-85
2021/09/25 10:36:52;;;;;;;9.07;4.75;;;;;;;;;;4999846;28;20022;-82
2021/09/25 10:39:37;;;;;;;4.45;3.80;;;;;;;;;;5011329;28;20106;-82
2021/09/25 10:42:37;;;;;;;8.63;5.85;;;;;;;;;;5004602;28;20119;-84
2021/09/25 10:45:27;;;;;;;10.77;8.30;;;;;;;;;;5014068;28;20057;-85
2021/09/25 10:48:12;;;;;;;15.93;14.23;;;;;;;;;;5003230;28;20512;-86
2021/09/25 10:51:11;;;;;;;43.70;34.92;;;;;;;;;;5020748;28;20064;-90
2021/09/25 10:54:01;;;;;;;6.15;4.15;;;;;;;;;;5013693;28;20128;-93
2021/09/25 10:56:49;;;;;;;7.57;4.25;;;;;;;;;;5005078;28;20018;-89
2021/09/25 10:59:35;;;;;;;8.93;4.53;;;;;;;;;;5007690;28;20046;-89
2021/09/25 11:02:39;;;;;;;4.63;3.83;;;;;;;;;;5012594;28;20096;-88
2021/09/25 11:05:43;;;;;;;4.70;3.90;;;;;;;;;;5014458;28;20027;-90
2021/09/25 11:08:32;;;;;;;4.03;3.45;;;;;;;;;;5012493;28;20502;-88
2021/09/25 11:11:17;;;;;;;;;;;;;;;;;;5015532;28;20032;-88
2021/09/25 11:14:02;;;;;;;8.88;5.30;;;;;;;;;;5017064;28;19967;-82
2021/09/25 11:16:48;;;;;;;9.80;4.57;;;;;;;;;;5016729;28;20026;-93
2021/09/25 11:19:44;;;;;;;6.05;4.15;;;;;;;;;;5006626;28;20020;-87
2021/09/25 11:22:36;;;;;;;7.22;3.88;;;;;;;;;;5017008;28;20025;-88
2021/09/25 11:25:22;;;;;;;6.97;4.57;;;;;;;;;;5007139;28;20022;-84
2021/09/25 11:28:08;;;;;;;9.30;3.90;;;;;;;;;;5015377;28;20454;-90
2021/09/25 11:30:53;;;;;;;4.13;3.40;;;;;;;;;;5008885;28;20025;-86
2021/09/25 11:33:41;;;;;;;9.63;3.63;;;;;;;;;;5019053;28;20025;-86
2021/09/25 11:36:28;;;;;;;5.93;3.90;;;;;;;;;;5007083;28;20451;-87
2021/09/25 11:39:13;;;;;;;5.45;3.30;;;;;;;;;;5011030;28;20057;-83
2021/09/25 11:42:16;;;;;;;7.13;4.15;;;;;;;;;;5005350;28;20026;-88
2021/09/25 11:45:06;;;;;;;7.30;3.92;;;;;;;;;;5008564;28;20023;-88
2021/09/25 11:47:51;;;;;;;63.25;57.10;;;;;;;;;;5007028;28;20507;-85
2021/09/25 11:50:38;;;;;;;44.42;39.70;;;;;;;;;;5001630;28;20028;-82
2021/09/25 11:53:31;;;;;;;82.78;68.13;;;;;;;;;;5005295;28;20464;-81
2021/09/25 11:56:24;;;;;;;11.80;8.98;;;;;;;;;;4998492;28;20029;-86
2021/09/25 11:59:12;;;;;;;9.18;6.53;;;;;;;;;;4984255;28;20338;-85
2021/09/25 12:01:57;;;;;;;9.55;6.32;;;;;;;;;;5002832;28;20461;-87
2021/09/25 12:04:43;;;;;;;5.75;4.30;;;;;;;;;;5010204;28;20024;-91
2021/09/25 12:07:38;;;;;;;13.35;7.45;;;;;;;;;;4995754;28;20072;-86
2021/09/25 12:10:24;;;;;;;5.82;4.78;;;;;;;;;;4988209;28;20047;-84
2021/09/25 12:13:18;;;;;;;8.07;5.35;;;;;;;;;;5005207;28;20388;-85
2021/09/25 12:16:05;;;;;;;10.35;5.85;;;;;;;;;;4999755;28;20557;-84
2021/09/25 12:18:52;;;;;;;7.13;4.20;;;;;;;;;;5002344;28;20029;-85
2021/09/25 12:21:38;;;;;;;15.80;5.85;;;;;;;;;;4990897;28;20025;-86
2021/09/25 12:24:23;;;;;;;11.07;5.22;;;;;;;;;;4998727;28;20100;-87
2021/09/25 12:27:08;;;;;;;5.97;3.80;;;;;;;;;;5001411;28;20042;-90
2021/09/25 12:29:54;;;;;;;9.00;4.85;;;;;;;;;;5006981;28;20017;-87
2021/09/25 12:32:42;;;;;;;102.43;38.15;;;;;;;;;;5002532;28;20038;-91
2021/09/25 12:35:28;;;;;;;63.20;24.47;;;;;;;;;;5004150;28;20037;-92
2021/09/25 12:38:14;;;;;;;24.50;11.18;;;;;;;;;;5007850;28;20509;-89
2021/09/25 12:41:01;;;;;;;11.80;5.53;;;;;;;;;;5005819;28;20408;-90
2021/09/25 12:43:48;;;;;;;5.72;3.80;;;;;;;;;;5006670;28;20034;-88
2021/09/25 12:46:35;;;;;;;10.48;5.43;;;;;;;;;;5017266;28;20033;-89
2021/09/25 12:49:22;;;;;;;70.20;30.35;;;;;;;;;;5010036;28;20117;-90
2021/09/25 12:52:08;;;;;;;48.67;20.95;;;;;;;;;;4994362;28;20033;-86
2021/09/25 12:54:55;;;;;;;15.77;13.55;;;;;;;;;;5004343;28;20030;-88
2021/09/25 12:57:41;;;;;;;35.95;32.20;;;;;;;;;;5002032;28;20131;-88
2021/09/25 13:00:27;;;;;;;35.08;29.70;;;;;;;;;;5009897;28;20053;-84
2021/09/25 13:03:16;;;;;;;61.78;55.63;;;;;;;;;;5005712;28;20023;-89
2021/09/25 13:06:13;;;;;;;60.53;36.33;;;;;;;;;;5018922;28;20111;-86
2021/09/25 13:08:59;;;;;;;22.05;15.23;;;;;;;;;;5018319;28;20279;-85
2021/09/25 13:12:03;;;;;;;4.93;3.90;;;;;;;;;;4999630;28;20014;-85
2021/09/25 13:14:58;;;;;;;20.48;13.85;;;;;;;;;;5015624;28;20049;-82
2021/09/25 13:17:46;;;;;;;6.55;4.35;;;;;;;;;;5011596;28;20116;-82
2021/09/25 13:20:32;;;;;;;6.10;3.42;;;;;;;;;;5013155;28;20022;-81
2021/09/25 13:23:18;;;;;;;6.72;3.70;;;;;;;;;;5008031;28;20439;-83
2021/09/25 13:26:04;;;;;;;7.00;3.50;;;;;;;;;;5010909;28;20060;-85
2021/09/25 13:28:49;;;;;;;8.52;3.38;;;;;;;;;;5005619;28;20018;-89
2021/09/25 13:31:34;;;;;;;6.57;3.95;;;;;;;;;;5010532;28;20472;-86
2021/09/25 13:34:19;;;;;;;6.80;3.38;;;;;;;;;;5014404;28;20025;-86
2021/09/25 13:37:05;;;;;;;8.40;3.25;;;;;;;;;;5005360;28;20072;-82
2021/09/25 13:39:51;;;;;;;8.10;4.00;;;;;;;;;;5014026;28;20053;-85
2021/09/25 13:42:36;;;;;;;6.63;4.40;;;;;;;;;;4997717;28;20025;-86
2021/09/25 13:45:22;;;;;;;10.02;4.30;;;;;;;;;;5011515;28;20104;-85
2021/09/25 13:48:07;;;;;;;21.38;13.25;;;;;;;;;;5004176;28;20060;-82
2021/09/25 13:50:52;;;;;;;6.05;4.18;;;;;;;;;;5022313;28;20021;-86
2021/09/25 13:53:37;;;;;;;5.60;3.67;;;;;;;;;;5020559;28;20025;-85
2021/09/25 13:56:23;;;;;;;5.47;3.22;;;;;;;;;;5019767;28;20018;-89
2021/09/25 13:59:08;;;;;;;6.78;3.60;;;;;;;;;;5004761;28;20049;-86
2021/09/25 14:01:53;;;;;;;166.00;138.57;;;;;;;;;;5014373;28;20057;-88
2021/09/25 14:04:39;;;;;;;33.92;27.35;;;;;;;;;;5014341;28;20037;-86
2021/09/25 14:07:24;;;;;;;16.08;12.15;;;;;;;;;;5018610;28;20044;-86
2021/09/25 14:10:09;;;;;;;9.00;6.72;;;;;;;;;;5010669;28;20476;-88
2021/09/25 14:12:55;;;;;;;5.10;3.78;;;;;;;;;;5000543;28;20453;-90
2021/09/25 14:15:40;;;;;;;10.20;6.90;;;;;;;;;;5001029;28;20048;-81
2021/09/25 14:18:25;;;;;;;6.07;4.18;;;;;;;;;;4997686;28;20065;-81
2021/09/25 14:21:11;;;;;;;3.65;3.13;;;;;;;;;;5011023;28;20122;-82
2021/09/25 14:23:56;;;;;;;4.20;3.03;;;;;;;;;;5006926;28;20034;-82
2021/09/25 14:26:41;;;;;;;4.85;3.00;;;;;;;;;;5010949;28;20022;-82
2021/09/25 14:29:27;;;;;;;4.00;2.92;;;;;;;;;;5014326;28;20040;-81
2021/09/25 14:32:15;;;;;;;7.88;3.70;;;;;;;;;;5009693;28;20061;-81
2021/09/25 14:35:00;;;;;;;4.10;2.97;;;;;;;;;;4995303;28;20128;-81
2021/09/25 14:37:46;;;;;;;6.10;3.60;;;;;;;;;;5006218;28;20383;-81
2021/09/25 14:40:31;;;;;;;6.20;2.80;;;;;;;;;;5001774;28;20033;-82
2021/09/25 14:43:16;;;;;;;6.88;3.25;;;;;;;;;;5009066;28;20835;-81
2021/09/25 14:46:01;;;;;;;3.63;2.72;;;;;;;;;;5002851;28;20104;-82
2021/09/25 14:48:48;;;;;;;5.07;3.17;;;;;;;;;;5013234;28;20049;-81
2021/09/25 14:51:34;;;;;;;6.20;3.22;;;;;;;;;;5012356;28;20060;-82
2021/09/25 14:54:19;;;;;;;7.28;2.80;;;;;;;;;;5012650;28;20056;-81
2021/09/25 14:57:05;;;;;;;6.95;3.25;;;;;;;;;;5008579;28;20163;-81
2021/09/25 14:59:50;;;;;;;5.93;3.28;;;;;;;;;;4997565;28;20037;-82
2021/09/25 15:02:35;;;;;;;4.90;3.63;;;;;;;;;;5015101;28;20354;-81
2021/09/25 15:05:21;;;;;;;7.47;3.22;;;;;;;;;;4994891;28;20029;-82
2021/09/25 15:08:06;;;;;;;12.20;3.25;;;;;;;;;;5012231;28;20120;-81
2021/09/25 15:10:51;;;;;;;6.18;3.17;;;;;;;;;;4994994;28;20116;-81
2021/09/25 15:13:37;;;;;;;8.20;3.10;;;;;;;;;;5010259;28;20024;-81
2021/09/25 15:16:22;;;;;;;3.85;2.63;;;;;;;;;;5006584;28;20047;-82
2021/09/25 15:19:07;;;;;;;3.72;3.30;;;;;;;;;;4996245;28;20030;-81
2021/09/25 15:21:53;;;;;;;7.57;3.17;;;;;;;;;;5017119;28;20107;-82
2021/09/25 15:24:38;;;;;;;6.90;2.95;;;;;;;;;;5004030;28;20102;-81
2021/09/25 15:27:23;;;;;;;7.35;3.90;;;;;;;;;;5003458;28;20028;-82
2021/09/25 15:30:09;;;;;;;7.45;4.60;;;;;;;;;;5007543;28;20025;-81
2021/09/25 15:32:54;;;;;;;7.15;4.15;;;;;;;;;;5008802;28;20368;-82
2021/09/25 15:35:40;;;;;;;6.05;3.30;;;;;;;;;;4997707;28;20025;-82
2021/09/25 15:38:26;;;;;;;5.07;2.95;;;;;;;;;;5008833;28;20430;-82
2021/09/25 15:41:11;;;;;;;5.22;3.22;;;;;;;;;;5012480;28;20095;-83
2021/09/25 15:43:58;;;;;;;5.38;3.28;;;;;;;;;;5006945;28;20054;-81
2021/09/25 15:46:43;;;;;;;9.05;4.13;;;;;;;;;;5010982;28;20041;-88
2021/09/25 15:49:29;;;;;;;9.23;4.70;;;;;;;;;;5013336;28;20049;-85
2021/09/25 15:52:14;;;;;;;7.13;3.47;;;;;;;;;;5010516;28;20021;-84
2021/09/25 15:55:00;;;;;;;4.43;3.22;;;;;;;;;;5019573;28;20657;-87
2021/09/25 15:57:45;;;;;;;8.13;3.55;;;;;;;;;;5017642;28;20068;-87
2021/09/25 16:00:30;;;;;;;6.53;4.05;;;;;;;;;;5005677;28;20075;-84
2021/09/25 16:03:17;;;;;;;7.63;3.92;;;;;;;;;;5005205;28;20376;-85
2021/09/25 16:06:03;;;;;;;12.68;4.22;;;;;;;;;;5002176;28;20025;-83
2021/09/25 16:08:48;;;;;;;5.43;3.53;;;;;;;;;;5008667;28;20103;-81
2021/09/25 16:11:34;;;;;;;5.88;3.60;;;;;;;;;;5005771;28;20049;-81
2021/09/25 16:14:19;;;;;;;4.63;2.88;;;;;;;;;;5004728;28;20084;-82
2021/09/25 16:17:05;;;;;;;6.30;3.75;;;;;;;;;;5002567;28;20033;-79
2021/09/25 16:19:50;;;;;;;5.95;4.05;;;;;;;;;;5001528;28;20030;-81
2021/09/25 16:22:36;;;;;;;7.72;5.20;;;;;;;;;;5013956;28;20069;-80
2021/09/25 16:25:21;;;;;;;6.20;4.53;;;;;;;;;;5007744;28;20746;-81
2021/09/25 16:28:06;;;;;;;9.05;4.97;;;;;;;;;;5015906;28;20143;-82
2021/09/25 16:30:52;;;;;;;9.80;5.28;;;;;;;;;;5008842;28;20056;-81